createdAt,value
2016-10-25T00:00:08.315Z,96.55
2016-10-25T00:01:08.558Z,96.41
2016-10-25T00:02:09.260Z,95.77
2016-10-25T00:03:07.971Z,95.34
2016-10-25T00:04:19.724Z,95.36
2016-10-25T00:05:08.316Z,95.26
2016-10-25T00:06:08.102Z,95.46
2016-10-25T00:07:08.603Z,95.07
2016-10-25T00:08:08.148Z,96.11
2016-10-25T00:09:08.002Z,96.98
2016-10-25T00:10:07.730Z,96.72
2016-10-25T00:11:08.356Z,96.35
2016-10-25T00:12:08.007Z,96.51
2016-10-25T00:13:07.656Z,95.75
2016-10-25T00:14:08.321Z,95.36
2016-10-25T00:15:08.423Z,95.03
2016-10-25T00:16:08.066Z,95.47
2016-10-25T00:17:08.405Z,96.55
2016-10-25T00:18:08.654Z,97.11
2016-10-25T00:19:08.315Z,96.44
2016-10-25T00:20:16.972Z,96.63
2016-10-25T00:21:07.795Z,96.50
2016-10-25T00:22:08.322Z,96.71
2016-10-25T00:23:07.949Z,96.60
2016-10-25T00:24:07.552Z,96.18
2016-10-25T00:25:08.219Z,95.86
2016-10-25T00:26:08.317Z,95.71
2016-10-25T00:27:08.222Z,96.10
2016-10-25T00:28:07.788Z,96.32
2016-10-25T00:29:08.359Z,96.18
2016-10-25T00:30:07.776Z,96.14
2016-10-25T00:31:09.126Z,95.17
2016-10-25T00:32:07.808Z,95.42
2016-10-25T00:33:08.479Z,95.89
2016-10-25T00:34:15.391Z,96.93
2016-10-25T00:35:07.971Z,96.26
2016-10-25T00:36:07.589Z,95.84
2016-10-25T00:37:09.991Z,95.96
2016-10-25T00:38:07.752Z,95.99
2016-10-25T00:39:08.612Z,96.02
2016-10-25T00:40:09.003Z,96.30
2016-10-25T00:41:07.804Z,95.82
2016-10-25T00:42:08.469Z,95.16
2016-10-25T00:43:20.633Z,95.69
2016-10-25T00:44:08.183Z,95.35
2016-10-25T00:45:07.820Z,95.12
2016-10-25T00:46:09.961Z,95.17
2016-10-25T00:47:07.433Z,95.49
2016-10-25T00:48:08.198Z,95.79
2016-10-25T00:49:08.017Z,96.81
2016-10-25T00:50:07.731Z,96.98
2016-10-25T00:51:08.462Z,96.52
2016-10-25T00:52:08.224Z,95.82
2016-10-25T00:53:08.008Z,95.32
2016-10-25T00:54:07.593Z,95.51
2016-10-25T00:55:08.281Z,94.85
2016-10-25T00:56:23.475Z,95.43
2016-10-25T00:57:08.079Z,95.66
2016-10-25T00:58:08.842Z,95.46
2016-10-25T00:59:07.811Z,95.88
2016-10-25T01:00:08.450Z,97.09
2016-10-25T01:01:08.190Z,97.34
2016-10-25T01:02:14.208Z,96.54
2016-10-25T01:03:07.867Z,95.62
2016-10-25T01:04:07.807Z,95.84
2016-10-25T01:05:08.418Z,95.49
2016-10-25T01:06:08.030Z,95.65
2016-10-25T01:07:07.674Z,95.59
2016-10-25T01:08:08.351Z,95.11
2016-10-25T01:09:07.931Z,95.43
2016-10-25T01:10:15.200Z,95.06
2016-10-25T01:11:07.861Z,95.68
2016-10-25T01:12:07.577Z,95.89
2016-10-25T01:13:08.715Z,95.49
2016-10-25T01:14:07.859Z,95.16
2016-10-25T01:15:08.452Z,94.87
2016-10-25T01:16:08.144Z,95.45
2016-10-25T01:17:10.050Z,95.57
2016-10-25T01:18:07.676Z,96.41
2016-10-25T01:19:08.975Z,96.70
2016-10-25T01:20:07.677Z,96.09
2016-10-25T01:21:08.361Z,96.52
2016-10-25T01:22:13.611Z,95.84
2016-10-25T01:23:08.877Z,95.72
2016-10-25T01:24:08.749Z,96.48
2016-10-25T01:25:08.462Z,96.67
2016-10-25T01:26:08.342Z,97.39
2016-10-25T01:27:08.030Z,97.25
2016-10-25T01:28:07.781Z,97.16
2016-10-25T01:29:08.819Z,97.31
2016-10-25T01:30:08.495Z,97.61
2016-10-25T01:31:09.025Z,97.48
2016-10-25T01:32:07.783Z,97.33
2016-10-25T01:33:08.418Z,97.24
2016-10-25T01:34:08.059Z,97.41
2016-10-25T01:35:07.831Z,97.12
2016-10-25T01:36:08.552Z,97.09
2016-10-25T01:37:08.268Z,97.57
2016-10-25T01:38:08.084Z,97.54
2016-10-25T01:39:08.126Z,97.84
2016-10-25T01:40:07.834Z,98.01
2016-10-25T01:41:08.587Z,97.74
2016-10-25T01:42:08.251Z,98.19
2016-10-25T01:43:07.801Z,97.72
2016-10-25T01:44:08.250Z,98.99
2016-10-25T01:45:07.865Z,98.30
2016-10-25T01:46:08.559Z,98.47
2016-10-25T01:47:09.874Z,98.15
2016-10-25T01:48:08.606Z,98.66
2016-10-25T01:49:08.459Z,97.88
2016-10-25T01:50:08.148Z,97.68
2016-10-25T01:51:07.985Z,97.20
2016-10-25T01:52:07.620Z,97.18
2016-10-25T01:53:08.342Z,98.30
2016-10-25T01:54:07.998Z,97.92
2016-10-25T01:55:08.673Z,98.39
2016-10-25T01:56:07.831Z,98.75
2016-10-25T01:57:08.431Z,98.92
2016-10-25T01:58:08.268Z,98.15
2016-10-25T01:59:07.931Z,97.69
2016-10-25T02:00:07.578Z,97.87
2016-10-25T02:01:08.161Z,98.62
2016-10-25T02:02:07.866Z,98.29
2016-10-25T02:03:08.162Z,99.10
2016-10-25T02:04:07.711Z,99.47
2016-10-25T02:05:08.211Z,99.49
2016-10-25T02:06:07.888Z,99.50
2016-10-25T02:07:08.612Z,99.45
2016-10-25T02:08:08.603Z,99.46
2016-10-25T02:09:08.265Z,98.92
2016-10-25T02:10:22.292Z,99.05
2016-10-25T02:11:07.878Z,98.92
2016-10-25T02:12:08.509Z,98.52
2016-10-25T02:13:08.023Z,98.39
2016-10-25T02:14:07.541Z,98.91
2016-10-25T02:15:08.103Z,98.94
2016-10-25T02:16:07.901Z,99.08
2016-10-25T02:17:08.715Z,99.42
2016-10-25T02:18:08.302Z,99.26
2016-10-25T02:19:09.432Z,99.37
2016-10-25T02:20:08.081Z,99.09
2016-10-25T02:21:07.920Z,99.94
2016-10-25T02:22:08.537Z,100.00
2016-10-25T02:23:07.997Z,100.00
2016-10-25T02:24:07.625Z,100.00
2016-10-25T02:25:08.418Z,100.00
2016-10-25T02:26:07.992Z,100.00
2016-10-25T02:27:07.423Z,100.00
2016-10-25T02:28:08.027Z,100.00
2016-10-25T02:29:07.805Z,100.00
2016-10-25T02:30:08.343Z,100.00
2016-10-25T02:31:08.192Z,100.00
2016-10-25T02:32:08.389Z,100.00
2016-10-25T02:33:08.030Z,100.00
2016-10-25T02:34:07.556Z,100.00
2016-10-25T02:35:08.146Z,100.00
2016-10-25T02:36:07.617Z,100.00
2016-10-25T02:37:08.318Z,100.00
2016-10-25T02:38:07.882Z,100.00
2016-10-25T02:39:08.615Z,100.00
2016-10-25T02:40:09.356Z,100.00
2016-10-25T02:41:07.962Z,100.00
2016-10-25T02:42:07.619Z,100.00
2016-10-25T02:43:08.922Z,100.00
2016-10-25T02:44:08.649Z,100.00
2016-10-25T02:45:08.557Z,100.00
2016-10-25T02:46:08.961Z,100.00
2016-10-25T02:47:07.617Z,100.00
2016-10-25T02:48:09.212Z,100.00
2016-10-25T02:49:07.795Z,100.00
2016-10-25T02:50:08.339Z,100.00
2016-10-25T02:51:07.953Z,100.00
2016-10-25T02:52:07.475Z,100.00
2016-10-25T02:53:08.161Z,100.00
2016-10-25T02:54:07.692Z,100.00
2016-10-25T02:55:08.264Z,100.00
2016-10-25T02:56:07.830Z,100.00
2016-10-25T02:57:08.416Z,100.00
2016-10-25T02:58:08.042Z,100.00
2016-10-25T02:59:07.647Z,100.00
2016-10-25T03:00:08.236Z,100.00
2016-10-25T03:01:07.808Z,100.00
2016-10-25T03:02:08.345Z,100.00
2016-10-25T03:03:08.017Z,100.00
2016-10-25T03:04:07.626Z,100.00
2016-10-25T03:05:08.192Z,100.00
2016-10-25T03:06:07.688Z,100.00
2016-10-25T03:07:08.348Z,100.00
2016-10-25T03:08:08.561Z,100.00
2016-10-25T03:09:22.807Z,100.00
2016-10-25T03:10:08.406Z,100.00
2016-10-25T03:11:07.986Z,100.00
2016-10-25T03:12:07.664Z,100.00
2016-10-25T03:13:08.186Z,100.00
2016-10-25T03:14:07.808Z,100.00
2016-10-25T03:15:08.537Z,100.00
2016-10-25T03:16:08.680Z,100.00
2016-10-25T03:17:08.433Z,100.00
2016-10-25T03:18:08.007Z,100.00
2016-10-25T03:19:07.582Z,100.00
2016-10-25T03:20:08.172Z,100.00
2016-10-25T03:21:07.783Z,100.00
2016-10-25T03:22:08.378Z,100.00
2016-10-25T03:23:07.987Z,100.00
2016-10-25T03:24:07.595Z,100.00
2016-10-25T03:25:08.156Z,100.00
2016-10-25T03:26:07.807Z,100.00
2016-10-25T03:27:08.409Z,100.00
2016-10-25T03:28:08.208Z,100.00
2016-10-25T03:29:07.799Z,100.00
2016-10-25T03:30:08.365Z,100.00
2016-10-25T03:31:08.519Z,100.00
2016-10-25T03:32:08.629Z,100.00
2016-10-25T03:33:08.236Z,100.00
2016-10-25T03:34:07.836Z,100.00
2016-10-25T03:35:08.458Z,100.00
2016-10-25T03:36:08.024Z,100.00
2016-10-25T03:37:07.586Z,100.00
2016-10-25T03:38:08.138Z,100.00
2016-10-25T03:39:07.697Z,100.00
2016-10-25T03:40:08.307Z,100.00
2016-10-25T03:41:07.882Z,100.00
2016-10-25T03:42:08.329Z,100.00
2016-10-25T03:43:08.054Z,100.00
2016-10-25T03:44:07.761Z,100.00
2016-10-25T03:45:08.461Z,100.00
2016-10-25T03:46:08.120Z,100.00
2016-10-25T03:47:07.691Z,100.00
2016-10-25T03:48:08.288Z,100.00
2016-10-25T03:49:07.945Z,100.00
2016-10-25T03:50:07.543Z,100.00
2016-10-25T03:51:08.109Z,100.00
2016-10-25T03:52:07.662Z,100.00
2016-10-25T03:53:08.327Z,100.00
2016-10-25T03:54:07.905Z,100.00
2016-10-25T03:55:08.448Z,100.00
2016-10-25T03:56:08.013Z,100.00
2016-10-25T03:57:07.657Z,100.00
2016-10-25T03:58:08.432Z,100.00
2016-10-25T03:59:08.140Z,100.00
2016-10-25T04:00:07.781Z,100.00
2016-10-25T04:01:08.445Z,100.00
2016-10-25T04:02:08.470Z,100.00
2016-10-25T04:03:08.047Z,100.00
2016-10-25T04:04:08.467Z,100.00
2016-10-25T04:05:08.370Z,100.00
2016-10-25T04:06:08.265Z,100.00
2016-10-25T04:07:07.979Z,100.00
2016-10-25T04:08:07.484Z,100.00
2016-10-25T04:09:08.027Z,100.00
2016-10-25T04:10:07.616Z,100.00
2016-10-25T04:11:08.102Z,100.00
2016-10-25T04:12:07.729Z,100.00
2016-10-25T04:13:08.295Z,100.00
2016-10-25T04:14:08.287Z,100.00
2016-10-25T04:15:07.943Z,100.00
2016-10-25T04:16:07.610Z,100.00
2016-10-25T04:17:08.897Z,100.00
2016-10-25T04:18:08.544Z,100.00
2016-10-25T04:19:08.129Z,100.00
2016-10-25T04:20:07.711Z,100.00
2016-10-25T04:21:08.306Z,100.00
2016-10-25T04:22:07.892Z,100.00
2016-10-25T04:23:08.473Z,100.00
2016-10-25T04:24:08.105Z,100.00
2016-10-25T04:25:10.706Z,100.00
2016-10-25T04:26:08.869Z,100.00
2016-10-25T04:27:08.500Z,100.00
2016-10-25T04:28:08.069Z,100.00
2016-10-25T04:29:07.569Z,100.00
2016-10-25T04:30:08.072Z,100.00
2016-10-25T04:31:07.577Z,100.00
2016-10-25T04:32:08.111Z,100.00
2016-10-25T04:33:07.630Z,100.00
2016-10-25T04:34:08.168Z,100.00
2016-10-25T04:35:07.728Z,100.00
2016-10-25T04:36:08.751Z,100.00
2016-10-25T04:37:09.353Z,100.00
2016-10-25T04:38:09.083Z,100.00
2016-10-25T04:39:08.001Z,100.00
2016-10-25T04:40:07.680Z,100.00
2016-10-25T04:41:08.356Z,100.00
2016-10-25T04:42:08.013Z,100.00
2016-10-25T04:43:08.582Z,100.00
2016-10-25T04:44:09.022Z,100.00
2016-10-25T04:45:07.662Z,100.00
2016-10-25T04:46:08.233Z,100.00
2016-10-25T04:47:07.749Z,100.00
2016-10-25T04:48:08.339Z,100.00
2016-10-25T04:49:08.105Z,100.00
2016-10-25T04:50:08.144Z,100.00
2016-10-25T04:51:07.761Z,100.00
2016-10-25T04:52:09.300Z,100.00
2016-10-25T04:53:07.931Z,100.00
2016-10-25T04:54:19.770Z,100.00
2016-10-25T04:55:08.593Z,100.00
2016-10-25T04:56:09.038Z,100.00
2016-10-25T04:57:07.684Z,100.00
2016-10-25T04:58:08.374Z,100.00
2016-10-25T04:59:08.726Z,100.00
2016-10-25T05:00:09.465Z,100.00
2016-10-25T05:01:08.047Z,100.00
2016-10-25T05:02:07.543Z,100.00
2016-10-25T05:03:08.199Z,100.00
2016-10-25T05:04:07.742Z,100.00
2016-10-25T05:05:08.456Z,100.00
2016-10-25T05:06:08.001Z,100.00
2016-10-25T05:07:07.532Z,100.00
2016-10-25T05:08:08.246Z,100.00
2016-10-25T05:09:22.902Z,100.00
2016-10-25T05:10:10.744Z,100.00
2016-10-25T05:11:08.393Z,100.00
2016-10-25T05:12:08.359Z,100.00
2016-10-25T05:13:07.977Z,100.00
2016-10-25T05:14:07.601Z,100.00
2016-10-25T05:15:08.282Z,100.00
2016-10-25T05:16:07.865Z,100.00
2016-10-25T05:17:08.616Z,100.00
2016-10-25T05:18:08.262Z,100.00
2016-10-25T05:19:07.838Z,100.00
2016-10-25T05:20:23.041Z,100.00
2016-10-25T05:21:07.749Z,100.00
2016-10-25T05:22:09.281Z,100.00
2016-10-25T05:23:07.831Z,100.00
2016-10-25T05:24:08.617Z,100.00
2016-10-25T05:25:08.317Z,100.00
2016-10-25T05:26:08.501Z,100.00
2016-10-25T05:27:08.804Z,100.00
2016-10-25T05:28:08.402Z,100.00
2016-10-25T05:29:08.053Z,100.00
2016-10-25T05:30:07.586Z,100.00
2016-10-25T05:31:08.088Z,100.00
2016-10-25T05:32:07.786Z,100.00
2016-10-25T05:33:08.378Z,100.00
2016-10-25T05:34:07.884Z,100.00
2016-10-25T05:35:08.647Z,100.00
2016-10-25T05:36:08.201Z,100.00
2016-10-25T05:37:07.695Z,100.00
2016-10-25T05:38:07.890Z,100.00
2016-10-25T05:39:08.496Z,100.00
2016-10-25T05:40:08.380Z,100.00
2016-10-25T05:41:08.032Z,100.00
2016-10-25T05:42:07.716Z,100.00
2016-10-25T05:43:08.433Z,100.00
2016-10-25T05:44:07.963Z,100.00
2016-10-25T05:45:24.197Z,100.00
2016-10-25T05:46:07.917Z,100.00
2016-10-25T05:47:08.642Z,100.00
2016-10-25T05:48:08.213Z,100.00
2016-10-25T05:49:07.952Z,100.00
2016-10-25T05:50:07.661Z,100.00
2016-10-25T05:51:08.386Z,100.00
2016-10-25T05:52:10.366Z,100.00
2016-10-25T05:53:08.860Z,100.00
2016-10-25T05:54:08.521Z,100.00
2016-10-25T05:55:08.050Z,100.00
2016-10-25T05:56:07.678Z,100.00
2016-10-25T05:57:08.202Z,100.00
2016-10-25T05:58:07.737Z,100.00
2016-10-25T05:59:08.294Z,100.00
2016-10-25T06:00:07.864Z,100.00
2016-10-25T06:01:08.561Z,100.00
2016-10-25T06:02:08.239Z,100.00
2016-10-25T06:03:07.945Z,100.00
2016-10-25T06:04:07.526Z,100.00
2016-10-25T06:05:08.033Z,100.00
2016-10-25T06:06:07.568Z,100.00
2016-10-25T06:07:08.258Z,100.00
2016-10-25T06:08:08.043Z,100.00
2016-10-25T06:09:07.732Z,100.00
2016-10-25T06:10:08.338Z,100.00
2016-10-25T06:11:07.838Z,100.00
2016-10-25T06:12:08.413Z,100.00
2016-10-25T06:13:08.056Z,100.00
2016-10-25T06:14:07.722Z,100.00
2016-10-25T06:15:08.293Z,100.00
2016-10-25T06:16:08.665Z,100.00
2016-10-25T06:17:08.414Z,100.00
2016-10-25T06:18:08.044Z,100.00
2016-10-25T06:19:07.565Z,100.00
2016-10-25T06:20:08.139Z,100.00
2016-10-25T06:21:07.772Z,100.00
2016-10-25T06:22:08.281Z,100.00
2016-10-25T06:23:07.476Z,100.00
2016-10-25T06:24:08.106Z,100.00
2016-10-25T06:25:22.298Z,100.00
2016-10-25T06:26:07.915Z,100.00
2016-10-25T06:27:09.617Z,100.00
2016-10-25T06:28:08.339Z,100.00
2016-10-25T06:29:07.998Z,100.00
2016-10-25T06:30:07.516Z,100.00
2016-10-25T06:31:08.132Z,100.00
2016-10-25T06:32:07.653Z,100.00
2016-10-25T06:33:08.238Z,100.00
2016-10-25T06:34:07.840Z,100.00
2016-10-25T06:35:08.504Z,100.00
2016-10-25T06:36:08.270Z,100.00
2016-10-25T06:37:07.949Z,100.00
2016-10-25T06:38:07.491Z,100.00
2016-10-25T06:39:08.007Z,100.00
2016-10-25T06:40:07.501Z,100.00
2016-10-25T06:41:08.050Z,100.00
2016-10-25T06:42:07.699Z,100.00
2016-10-25T06:43:08.340Z,100.00
2016-10-25T06:44:07.918Z,100.00
2016-10-25T06:45:08.501Z,100.00
2016-10-25T06:46:08.159Z,100.00
2016-10-25T06:47:07.702Z,100.00
2016-10-25T06:48:08.239Z,100.00
2016-10-25T06:49:07.728Z,100.00
2016-10-25T06:50:08.304Z,100.00
2016-10-25T06:51:07.888Z,100.00
2016-10-25T06:52:08.457Z,100.00
2016-10-25T06:53:08.107Z,100.00
2016-10-25T06:54:07.613Z,100.00
2016-10-25T06:55:08.114Z,100.00
2016-10-25T06:56:07.717Z,100.00
2016-10-25T06:57:08.772Z,100.00
2016-10-25T06:58:08.320Z,100.00
2016-10-25T06:59:08.002Z,100.00
2016-10-25T07:00:07.537Z,100.00
2016-10-25T07:01:08.138Z,100.00
2016-10-25T07:02:07.628Z,100.00
2016-10-25T07:03:08.298Z,100.00
2016-10-25T07:04:07.934Z,100.00
2016-10-25T07:05:07.429Z,100.00
2016-10-25T07:06:08.078Z,100.00
2016-10-25T07:07:07.647Z,100.00
2016-10-25T07:08:08.224Z,100.00
2016-10-25T07:09:08.412Z,100.00
2016-10-25T07:10:08.032Z,100.00
2016-10-25T07:11:07.598Z,100.00
2016-10-25T07:12:08.198Z,100.00
2016-10-25T07:13:07.731Z,100.00
2016-10-25T07:14:08.312Z,100.00
2016-10-25T07:15:07.954Z,100.00
2016-10-25T07:16:07.496Z,100.00
2016-10-25T07:17:08.250Z,100.00
2016-10-25T07:18:08.015Z,100.00
2016-10-25T07:19:07.744Z,100.00
2016-10-25T07:20:08.280Z,100.00
2016-10-25T07:21:07.792Z,100.00
2016-10-25T07:22:08.346Z,100.00
2016-10-25T07:23:07.942Z,100.00
2016-10-25T07:24:07.475Z,100.00
2016-10-25T07:25:08.000Z,100.00
2016-10-25T07:26:07.686Z,100.00
2016-10-25T07:27:08.663Z,100.00
2016-10-25T07:28:08.229Z,100.00
2016-10-25T07:29:07.829Z,100.00
2016-10-25T07:30:08.469Z,100.00
2016-10-25T07:31:08.423Z,100.00
2016-10-25T07:32:08.133Z,100.00
2016-10-25T07:33:07.655Z,100.00
2016-10-25T07:34:08.390Z,100.00
2016-10-25T07:35:07.940Z,100.00
2016-10-25T07:36:07.497Z,100.00
2016-10-25T07:37:08.178Z,100.00
2016-10-25T07:38:07.839Z,100.00
2016-10-25T07:39:08.329Z,100.00
2016-10-25T07:40:07.822Z,100.00
2016-10-25T07:41:08.472Z,100.00
2016-10-25T07:42:08.974Z,100.00
2016-10-25T07:43:07.594Z,100.00
2016-10-25T07:44:09.125Z,100.00
2016-10-25T07:45:07.731Z,100.00
2016-10-25T07:46:08.363Z,100.00
2016-10-25T07:47:08.052Z,100.00
2016-10-25T07:48:07.650Z,100.00
2016-10-25T07:49:08.292Z,100.00
2016-10-25T07:50:07.827Z,100.00
2016-10-25T07:51:08.350Z,100.00
2016-10-25T07:52:08.065Z,100.00
2016-10-25T07:53:07.683Z,100.00
2016-10-25T07:54:08.284Z,100.00
2016-10-25T07:55:07.816Z,100.00
2016-10-25T07:56:08.332Z,100.00
2016-10-25T07:57:07.899Z,100.00
2016-10-25T07:58:08.584Z,100.00
2016-10-25T07:59:08.214Z,100.00
2016-10-25T08:00:07.835Z,100.00
2016-10-25T08:01:08.471Z,100.00
2016-10-25T08:02:08.016Z,100.00
2016-10-25T08:03:07.884Z,100.00
2016-10-25T08:04:08.472Z,100.00
2016-10-25T08:05:08.056Z,100.00
2016-10-25T08:06:07.652Z,100.00
2016-10-25T08:07:08.222Z,100.00
2016-10-25T08:08:07.834Z,100.00
2016-10-25T08:09:08.336Z,100.00
2016-10-25T08:10:07.832Z,100.00
2016-10-25T08:11:08.549Z,100.00
2016-10-25T08:12:09.183Z,100.00
2016-10-25T08:13:07.666Z,100.00
2016-10-25T08:14:08.233Z,100.00
2016-10-25T08:15:08.028Z,100.00
2016-10-25T08:16:14.945Z,100.00
2016-10-25T08:17:07.767Z,100.00
2016-10-25T08:18:08.346Z,100.00
2016-10-25T08:19:07.988Z,100.00
2016-10-25T08:20:07.474Z,100.00
2016-10-25T08:21:08.058Z,100.00
2016-10-25T08:22:07.568Z,100.00
2016-10-25T08:23:08.045Z,100.00
2016-10-25T08:24:07.856Z,100.00
2016-10-25T08:25:08.416Z,100.00
2016-10-25T08:26:07.924Z,100.00
2016-10-25T08:27:07.545Z,100.00
2016-10-25T08:28:08.121Z,100.00
2016-10-25T08:29:08.423Z,100.00
2016-10-25T08:30:08.227Z,100.00
2016-10-25T08:31:08.270Z,100.00
2016-10-25T08:32:07.954Z,100.00
2016-10-25T08:33:07.809Z,100.00
2016-10-25T08:34:08.436Z,100.00
2016-10-25T08:35:08.303Z,100.00
2016-10-25T08:36:07.934Z,100.00
2016-10-25T08:37:07.498Z,100.00
2016-10-25T08:38:08.000Z,100.00
2016-10-25T08:39:07.707Z,100.00
2016-10-25T08:40:08.842Z,100.00
2016-10-25T08:41:08.495Z,100.00
2016-10-25T08:42:09.001Z,100.00
2016-10-25T08:43:07.705Z,100.00
2016-10-25T08:44:08.268Z,100.00
2016-10-25T08:45:07.804Z,100.00
2016-10-25T08:46:08.445Z,100.00
2016-10-25T08:47:08.144Z,100.00
2016-10-25T08:48:08.163Z,100.00
2016-10-25T08:49:07.861Z,100.00
2016-10-25T08:50:08.618Z,100.00
2016-10-25T08:51:08.310Z,100.00
2016-10-25T08:52:07.801Z,100.00
2016-10-25T08:53:08.431Z,100.00
2016-10-25T08:54:08.106Z,100.00
2016-10-25T08:55:07.609Z,100.00
2016-10-25T08:56:08.162Z,100.00
2016-10-25T08:57:07.701Z,100.00
2016-10-25T08:58:08.239Z,100.00
2016-10-25T08:59:07.811Z,100.00
2016-10-25T09:00:08.326Z,100.00
2016-10-25T09:01:07.913Z,100.00
2016-10-25T09:02:08.488Z,100.00
2016-10-25T09:03:08.148Z,100.00
2016-10-25T09:04:07.741Z,100.00
2016-10-25T09:05:10.205Z,100.00
2016-10-25T09:06:07.866Z,100.00
2016-10-25T09:07:08.723Z,100.00
2016-10-25T09:08:08.334Z,100.00
2016-10-25T09:09:07.947Z,100.00
2016-10-25T09:10:07.564Z,100.00
2016-10-25T09:11:22.917Z,100.00
2016-10-25T09:12:24.118Z,99.96
2016-10-25T09:13:07.887Z,99.50
2016-10-25T09:14:08.629Z,99.73
2016-10-25T09:15:08.294Z,99.73
2016-10-25T09:16:07.809Z,99.41
2016-10-25T09:17:08.508Z,99.39
2016-10-25T09:18:08.267Z,99.26
2016-10-25T09:19:08.077Z,99.41
2016-10-25T09:20:07.639Z,99.53
2016-10-25T09:21:08.333Z,99.20
2016-10-25T09:22:08.006Z,100.00
2016-10-25T09:23:07.545Z,98.84
2016-10-25T09:24:08.142Z,99.25
2016-10-25T09:25:07.767Z,100.00
2016-10-25T09:26:08.407Z,99.35
2016-10-25T09:27:08.109Z,99.31
2016-10-25T09:28:20.150Z,99.29
2016-10-25T09:29:07.781Z,99.11
2016-10-25T09:30:08.461Z,99.56
2016-10-25T09:32:01.866Z,100.00
2016-10-25T09:32:09.766Z,100.00
2016-10-25T09:33:08.395Z,100.00
2016-10-25T09:34:08.318Z,100.00
2016-10-25T09:35:08.296Z,100.00
2016-10-25T09:36:07.828Z,100.00
2016-10-25T09:37:08.488Z,100.00
2016-10-25T09:38:08.378Z,100.00
2016-10-25T09:39:08.166Z,100.00
2016-10-25T09:40:07.923Z,100.00
2016-10-25T09:41:10.029Z,100.00
2016-10-25T09:42:07.637Z,100.00
2016-10-25T09:43:08.234Z,100.00
2016-10-25T09:44:07.921Z,100.00
2016-10-25T09:45:08.609Z,100.00
2016-10-25T09:46:08.179Z,100.00
2016-10-25T09:47:07.828Z,100.00
2016-10-25T09:48:08.359Z,100.00
2016-10-25T09:49:08.022Z,100.00
2016-10-25T09:50:07.973Z,100.00
2016-10-25T09:51:07.567Z,100.00
2016-10-25T09:52:08.149Z,100.00
2016-10-25T09:53:07.570Z,100.00
2016-10-25T09:54:08.020Z,100.00
2016-10-25T09:55:07.535Z,100.00
2016-10-25T09:57:03.296Z,100.00
2016-10-25T09:57:08.467Z,100.00
2016-10-25T09:58:08.066Z,100.00
2016-10-25T09:59:07.686Z,100.00
2016-10-25T10:00:08.327Z,100.00
2016-10-25T10:01:07.893Z,100.00
2016-10-25T10:02:08.580Z,100.00
2016-10-25T10:03:08.181Z,100.00
2016-10-25T10:04:07.837Z,100.00
2016-10-25T10:05:08.419Z,100.00
2016-10-25T10:06:07.996Z,99.78
2016-10-25T10:07:07.543Z,100.00
2016-10-25T10:08:08.121Z,100.00
2016-10-25T10:09:07.636Z,100.00
2016-10-25T10:10:08.217Z,100.00
2016-10-25T10:11:07.846Z,100.00
2016-10-25T10:12:09.343Z,100.00
2016-10-25T10:13:07.978Z,100.00
2016-10-25T10:14:07.592Z,100.00
2016-10-25T10:15:08.250Z,100.00
2016-10-25T10:16:07.867Z,100.00
2016-10-25T10:17:08.926Z,100.00
2016-10-25T10:18:08.625Z,100.00
2016-10-25T10:19:08.383Z,100.00
2016-10-25T10:20:07.881Z,100.00
2016-10-25T10:21:08.540Z,100.00
2016-10-25T10:22:08.058Z,100.00
2016-10-25T10:23:07.765Z,100.00
2016-10-25T10:24:08.774Z,99.78
2016-10-25T10:25:08.424Z,100.00
2016-10-25T10:26:08.274Z,100.00
2016-10-25T10:27:07.747Z,100.00
2016-10-25T10:28:08.489Z,99.48
2016-10-25T10:29:08.141Z,98.42
2016-10-25T10:30:07.642Z,98.47
2016-10-25T10:31:08.423Z,98.26
2016-10-25T10:32:08.020Z,98.87
2016-10-25T10:33:07.560Z,99.40
2016-10-25T10:34:08.044Z,99.08
2016-10-25T10:35:07.528Z,99.05
2016-10-25T10:36:08.440Z,99.24
2016-10-25T10:37:07.909Z,98.94
2016-10-25T10:38:08.553Z,98.92
2016-10-25T10:39:08.312Z,98.10
2016-10-25T10:40:08.189Z,98.07
2016-10-25T10:41:07.933Z,98.38
2016-10-25T10:42:08.568Z,98.47
2016-10-25T10:43:08.234Z,97.05
2016-10-25T10:44:07.735Z,97.46
2016-10-25T10:45:08.358Z,97.81
2016-10-25T10:46:07.907Z,98.18
2016-10-25T10:47:08.514Z,98.11
2016-10-25T10:48:08.827Z,97.63
2016-10-25T10:49:08.488Z,97.10
2016-10-25T10:50:08.569Z,97.76
2016-10-25T10:51:08.059Z,97.99
2016-10-25T10:52:08.119Z,98.06
2016-10-25T10:53:07.611Z,98.72
2016-10-25T10:54:08.597Z,98.49
2016-10-25T10:55:08.260Z,98.29
2016-10-25T10:56:08.536Z,98.50
2016-10-25T10:57:08.287Z,99.07
2016-10-25T10:58:07.926Z,99.47
2016-10-25T10:59:09.257Z,97.96
2016-10-25T11:00:07.825Z,98.11
2016-10-25T11:01:09.917Z,98.36
2016-10-25T11:02:07.615Z,98.35
2016-10-25T11:03:08.273Z,98.01
2016-10-25T11:04:07.759Z,98.29
2016-10-25T11:05:08.900Z,98.59
2016-10-25T11:06:08.464Z,97.06
2016-10-25T11:07:08.085Z,97.43
2016-10-25T11:08:07.584Z,97.65
2016-10-25T11:09:08.051Z,95.71
2016-10-25T11:10:07.643Z,95.72
2016-10-25T11:11:08.140Z,96.11
2016-10-25T11:12:07.674Z,96.56
2016-10-25T11:13:08.299Z,97.05
2016-10-25T11:14:07.908Z,97.05
2016-10-25T11:15:08.689Z,96.59
2016-10-25T11:16:08.408Z,96.95
2016-10-25T11:17:08.168Z,96.94
2016-10-25T11:18:08.712Z,95.71
2016-10-25T11:19:08.244Z,96.31
2016-10-25T11:20:07.824Z,96.14
2016-10-25T11:21:10.379Z,95.51
2016-10-25T11:22:07.993Z,94.62
2016-10-25T11:23:07.499Z,92.95
2016-10-25T11:24:09.156Z,94.20
2016-10-25T11:25:07.699Z,94.57
2016-10-25T11:26:08.510Z,94.46
2016-10-25T11:27:08.444Z,94.18
2016-10-25T11:28:08.915Z,95.29
2016-10-25T11:29:09.443Z,94.27
2016-10-25T11:30:08.130Z,95.03
2016-10-25T11:31:07.992Z,95.16
2016-10-25T11:32:07.528Z,94.23
2016-10-25T11:33:10.505Z,94.09
2016-10-25T11:34:08.453Z,94.43
2016-10-25T11:35:08.231Z,94.64
2016-10-25T11:36:15.314Z,94.92
2016-10-25T11:37:07.994Z,92.71
2016-10-25T11:38:08.117Z,93.77
2016-10-25T11:39:07.813Z,93.14
2016-10-25T11:40:08.629Z,93.28
2016-10-25T11:41:08.281Z,93.90
2016-10-25T11:42:08.183Z,92.24
2016-10-25T11:43:07.665Z,93.53
2016-10-25T11:44:09.180Z,93.52
2016-10-25T11:45:07.794Z,93.42
2016-10-25T11:46:26.460Z,92.11
2016-10-25T11:47:10.970Z,93.21
2016-10-25T11:48:08.645Z,92.30
2016-10-25T11:49:08.738Z,92.87
2016-10-25T11:50:08.524Z,91.78
2016-10-25T11:51:08.142Z,91.92
2016-10-25T11:52:10.085Z,92.44
2016-10-25T11:53:07.766Z,92.40
2016-10-25T11:54:08.425Z,92.78
2016-10-25T11:55:08.148Z,92.97
2016-10-25T11:56:07.858Z,92.40
2016-10-25T11:57:08.614Z,92.66
2016-10-25T11:58:08.247Z,92.51
2016-10-25T11:59:07.877Z,93.29
2016-10-25T12:00:08.545Z,93.12
2016-10-25T12:01:08.135Z,92.52
2016-10-25T12:02:07.807Z,91.64
2016-10-25T12:03:08.653Z,92.10
2016-10-25T12:04:08.892Z,92.73
2016-10-25T12:05:07.583Z,93.15
2016-10-25T12:06:08.208Z,92.93
2016-10-25T12:07:07.871Z,93.38
2016-10-25T12:08:08.628Z,92.27
2016-10-25T12:09:08.450Z,93.64
2016-10-25T12:10:08.218Z,93.30
2016-10-25T12:11:07.753Z,92.90
2016-10-25T12:12:42.095Z,93.22
2016-10-25T12:13:09.102Z,93.28
2016-10-25T12:14:09.406Z,92.96
2016-10-25T12:15:09.774Z,93.12
2016-10-25T12:16:08.379Z,93.12
2016-10-25T12:17:09.629Z,93.35
2016-10-25T12:18:07.604Z,93.52
2016-10-25T12:19:09.130Z,92.50
2016-10-25T12:20:08.713Z,92.68
2016-10-25T12:21:08.324Z,93.21
2016-10-25T12:22:07.989Z,93.52
2016-10-25T12:23:07.550Z,93.35
2016-10-25T12:24:08.024Z,94.05
2016-10-25T12:25:07.472Z,95.06
2016-10-25T12:26:08.257Z,95.75
2016-10-25T12:27:07.765Z,96.47
2016-10-25T12:28:08.295Z,96.32
2016-10-25T12:29:07.826Z,96.83
2016-10-25T12:30:08.392Z,97.06
2016-10-25T12:31:08.258Z,97.28
2016-10-25T12:32:07.768Z,97.83
2016-10-25T12:33:08.278Z,97.35
2016-10-25T12:34:07.761Z,97.84
2016-10-25T12:35:08.296Z,98.44
2016-10-25T12:36:07.883Z,98.57
2016-10-25T12:37:08.420Z,98.66